sensor_id;sensor_type;location;lat;lon;timestamp;P1;durP1;ratioP1;P2;durP2;ratioP2
67344;SDS011;54230;52.402;6.276;2023-01-26T00:00:00;91.4;;;37.2;;
67344;SDS011;54230;52.402;6.276;2023-01-26T00:05:00;103.9;;;37.6;;
67344;SDS011;54230;52.402;6.276;2023-01-26T00:10:00;97.2;;;36.9;;
67344;SDS011;54230;52.402;6.276;2023-01-26T00:15:00;103.3;;;36.4;;
67344;SDS011;54230;52.402;6.276;2023-01-26T00:20:00;107.9;;;38.4;;
67344;SDS011;54230;52.402;6.276;2023-01-26T00:25:00;102.5;;;36.6;;
67344;SDS011;54230;52.402;6.276;2023-01-26T00:30:00;84.0;;;33.0;;
67344;SDS011;54230;52.402;6.276;2023-01-26T00:35:00;85.7;;;34.8;;
67344;SDS011;54230;52.402;6.276;2023-01-26T00:40:00;90.3;;;34.4;;
67344;SDS011;54230;52.402;6.276;2023-01-26T00:45:00;97.8;;;36.6;;
67344;SDS011;54230;52.402;6.276;2023-01-26T00:50:00;97.6;;;35.4;;
67344;SDS011;54230;52.402;6.276;2023-01-26T00:55:00;98.3;;;34.8;;
67344;SDS011;54230;52.402;6.276;2023-01-26T01:00:00;94.3;;;35.4;;
67344;SDS011;54230;52.402;6.276;2023-01-26T01:05:00;93.5;;;35.9;;
67344;SDS011;54230;52.402;6.276;2023-01-26T01:10:00;104.6;;;35.8;;
67344;SDS011;54230;52.402;6.276;2023-01-26T01:15:00;106.0;;;37.5;;
67344;SDS011;54230;52.402;6.276;2023-01-26T01:20:00;97.4;;;36.4;;
67344;SDS011;54230;52.402;6.276;2023-01-26T01:25:00;95.6;;;35.0;;
67344;SDS011;54230;52.402;6.276;2023-01-26T01:30:00;107.4;;;36.8;;
67344;SDS011;54230;52.402;6.276;2023-01-26T01:35:00;100.0;;;34.5;;
67344;SDS011;54230;52.402;6.276;2023-01-26T01:40:00;103.2;;;36.0;;
67344;SDS011;54230;52.402;6.276;2023-01-26T01:50:00;108.0;;;36.5;;
67344;SDS011;54230;52.402;6.276;2023-01-26T01:55:01;96.8;;;35.4;;
67344;SDS011;54230;52.402;6.276;2023-01-26T02:00:02;91.1;;;33.4;;
67344;SDS011;54230;52.402;6.276;2023-01-26T02:05:03;92.5;;;33.8;;
67344;SDS011;54230;52.402;6.276;2023-01-26T02:10:00;84.7;;;31.6;;
67344;SDS011;54230;52.402;6.276;2023-01-26T02:15:00;75.1;;;31.9;;
67344;SDS011;54230;52.402;6.276;2023-01-26T02:20:02;73.0;;;28.4;;
67344;SDS011;54230;52.402;6.276;2023-01-26T02:25:01;81.1;;;30.2;;
67344;SDS011;54230;52.402;6.276;2023-01-26T02:30:00;70.5;;;29.2;;
67344;SDS011;54230;52.402;6.276;2023-01-26T02:35:00;81.6;;;31.2;;
67344;SDS011;54230;52.402;6.276;2023-01-26T02:40:01;79.0;;;31.9;;
67344;SDS011;54230;52.402;6.276;2023-01-26T02:45:00;82.3;;;31.7;;
67344;SDS011;54230;52.402;6.276;2023-01-26T02:50:00;79.0;;;29.4;;
67344;SDS011;54230;52.402;6.276;2023-01-26T02:55:00;75.3;;;30.0;;
67344;SDS011;54230;52.402;6.276;2023-01-26T03:00:00;81.0;;;32.0;;
67344;SDS011;54230;52.402;6.276;2023-01-26T03:05:00;76.3;;;29.8;;
67344;SDS011;54230;52.402;6.276;2023-01-26T03:10:00;78.7;;;30.0;;
67344;SDS011;54230;52.402;6.276;2023-01-26T03:15:00;73.1;;;30.0;;
67344;SDS011;54230;52.402;6.276;2023-01-26T03:20:00;70.7;;;28.1;;
67344;SDS011;54230;52.402;6.276;2023-01-26T03:25:00;74.8;;;26.7;;
67344;SDS011;54230;52.402;6.276;2023-01-26T03:30:00;67.4;;;25.9;;
67344;SDS011;54230;52.402;6.276;2023-01-26T03:35:00;63.3;;;26.3;;
67344;SDS011;54230;52.402;6.276;2023-01-26T03:40:00;59.1;;;27.2;;
67344;SDS011;54230;52.402;6.276;2023-01-26T03:45:00;60.0;;;24.9;;
67344;SDS011;54230;52.402;6.276;2023-01-26T03:50:00;66.8;;;28.2;;
67344;SDS011;54230;52.402;6.276;2023-01-26T03:55:00;60.6;;;26.9;;
67344;SDS011;54230;52.402;6.276;2023-01-26T04:00:00;55.1;;;25.8;;
67344;SDS011;54230;52.402;6.276;2023-01-26T04:05:00;57.0;;;25.6;;
67344;SDS011;54230;52.402;6.276;2023-01-26T04:10:00;54.6;;;25.3;;
67344;SDS011;54230;52.402;6.276;2023-01-26T04:15:00;61.8;;;26.6;;
67344;SDS011;54230;52.402;6.276;2023-01-26T04:20:00;59.0;;;25.2;;
67344;SDS011;54230;52.402;6.276;2023-01-26T04:25:00;52.8;;;26.4;;
67344;SDS011;54230;52.402;6.276;2023-01-26T04:30:00;52.4;;;24.2;;
67344;SDS011;54230;52.402;6.276;2023-01-26T04:35:00;50.3;;;24.5;;
67344;SDS011;54230;52.402;6.276;2023-01-26T04:40:00;54.4;;;26.7;;
67344;SDS011;54230;52.402;6.276;2023-01-26T04:45:00;53.8;;;25.9;;
67344;SDS011;54230;52.402;6.276;2023-01-26T04:50:00;50.5;;;24.9;;
67344;SDS011;54230;52.402;6.276;2023-01-26T04:55:00;55.2;;;26.7;;
67344;SDS011;54230;52.402;6.276;2023-01-26T05:00:00;56.1;;;26.1;;
67344;SDS011;54230;52.402;6.276;2023-01-26T05:05:00;52.3;;;24.4;;
67344;SDS011;54230;52.402;6.276;2023-01-26T05:10:00;46.5;;;24.1;;
67344;SDS011;54230;52.402;6.276;2023-01-26T05:15:00;50.6;;;25.1;;
67344;SDS011;54230;52.402;6.276;2023-01-26T05:20:00;49.0;;;24.2;;
67344;SDS011;54230;52.402;6.276;2023-01-26T05:25:00;55.2;;;25.1;;
67344;SDS011;54230;52.402;6.276;2023-01-26T05:30:00;52.7;;;25.5;;
67344;SDS011;54230;52.402;6.276;2023-01-26T05:35:00;55.6;;;26.2;;
67344;SDS011;54230;52.402;6.276;2023-01-26T05:40:00;55.6;;;26.1;;
67344;SDS011;54230;52.402;6.276;2023-01-26T05:45:00;52.1;;;26.5;;
67344;SDS011;54230;52.402;6.276;2023-01-26T05:50:00;50.5;;;25.7;;
67344;SDS011;54230;52.402;6.276;2023-01-26T05:55:00;48.2;;;25.1;;
67344;SDS011;54230;52.402;6.276;2023-01-26T06:00:00;52.1;;;25.0;;
67344;SDS011;54230;52.402;6.276;2023-01-26T06:05:00;54.4;;;26.9;;
67344;SDS011;54230;52.402;6.276;2023-01-26T06:10:00;47.6;;;24.4;;
67344;SDS011;54230;52.402;6.276;2023-01-26T06:15:00;50.1;;;25.5;;
67344;SDS011;54230;52.402;6.276;2023-01-26T06:20:00;52.9;;;25.4;;
67344;SDS011;54230;52.402;6.276;2023-01-26T06:25:00;52.4;;;25.8;;
67344;SDS011;54230;52.402;6.276;2023-01-26T06:30:00;48.8;;;25.2;;
67344;SDS011;54230;52.402;6.276;2023-01-26T06:35:00;50.1;;;24.3;;
67344;SDS011;54230;52.402;6.276;2023-01-26T06:40:00;54.6;;;27.1;;
67344;SDS011;54230;52.402;6.276;2023-01-26T06:45:00;52.1;;;24.7;;
67344;SDS011;54230;52.402;6.276;2023-01-26T06:50:00;53.2;;;27.1;;
67344;SDS011;54230;52.402;6.276;2023-01-26T06:55:00;62.2;;;27.0;;
67344;SDS011;54230;52.402;6.276;2023-01-26T07:00:00;54.5;;;26.1;;
67344;SDS011;54230;52.402;6.276;2023-01-26T07:05:00;57.2;;;24.8;;
67344;SDS011;54230;52.402;6.276;2023-01-26T07:10:00;62.8;;;26.0;;
67344;SDS011;54230;52.402;6.276;2023-01-26T07:15:00;63.8;;;25.2;;
67344;SDS011;54230;52.402;6.276;2023-01-26T07:20:00;65.4;;;26.7;;
67344;SDS011;54230;52.402;6.276;2023-01-26T07:25:00;68.9;;;28.0;;
67344;SDS011;54230;52.402;6.276;2023-01-26T07:30:00;74.9;;;27.7;;
67344;SDS011;54230;52.402;6.276;2023-01-26T07:35:00;75.6;;;30.1;;
67344;SDS011;54230;52.402;6.276;2023-01-26T07:40:00;76.9;;;27.5;;
67344;SDS011;54230;52.402;6.276;2023-01-26T07:45:00;73.4;;;28.6;;
67344;SDS011;54230;52.402;6.276;2023-01-26T07:50:00;75.0;;;27.9;;
67344;SDS011;54230;52.402;6.276;2023-01-26T07:55:00;75.8;;;26.6;;
67344;SDS011;54230;52.402;6.276;2023-01-26T08:00:00;87.4;;;29.8;;
67344;SDS011;54230;52.402;6.276;2023-01-26T08:05:00;81.2;;;27.5;;
67344;SDS011;54230;52.402;6.276;2023-01-26T08:10:00;91.8;;;27.9;;
67344;SDS011;54230;52.402;6.276;2023-01-26T08:15:00;90.6;;;26.9;;
67344;SDS011;54230;52.402;6.276;2023-01-26T08:20:00;84.8;;;28.1;;
67344;SDS011;54230;52.402;6.276;2023-01-26T08:25:00;87.6;;;26.7;;
67344;SDS011;54230;52.402;6.276;2023-01-26T08:30:00;95.4;;;28.5;;
67344;SDS011;54230;52.402;6.276;2023-01-26T08:35:00;110.4;;;29.2;;
67344;SDS011;54230;52.402;6.276;2023-01-26T08:40:00;102.6;;;28.8;;
67344;SDS011;54230;52.402;6.276;2023-01-26T08:45:00;110.2;;;28.1;;
67344;SDS011;54230;52.402;6.276;2023-01-26T08:50:00;130.5;;;29.5;;
67344;SDS011;54230;52.402;6.276;2023-01-26T08:55:00;127.7;;;29.1;;
67344;SDS011;54230;52.402;6.276;2023-01-26T09:00:00;205.7;;;31.8;;
67344;SDS011;54230;52.402;6.276;2023-01-26T09:05:00;263.9;;;33.5;;
67344;SDS011;54230;52.402;6.276;2023-01-26T09:10:00;164.2;;;30.1;;
67344;SDS011;54230;52.402;6.276;2023-01-26T09:15:00;300.3;;;30.5;;
67344;SDS011;54230;52.402;6.276;2023-01-26T09:20:00;200.8;;;29.0;;
67344;SDS011;54230;52.402;6.276;2023-01-26T09:25:00;206.2;;;26.0;;
67344;SDS011;54230;52.402;6.276;2023-01-26T09:30:00;185.6;;;23.2;;
67344;SDS011;54230;52.402;6.276;2023-01-26T09:35:00;329.9;;;26.6;;
67344;SDS011;54230;52.402;6.276;2023-01-26T09:40:00;219.3;;;23.9;;
67344;SDS011;54230;52.402;6.276;2023-01-26T09:45:03;212.6;;;23.3;;
67344;SDS011;54230;52.402;6.276;2023-01-26T09:50:00;220.5;;;20.5;;
67344;SDS011;54230;52.402;6.276;2023-01-26T09:55:02;213.6;;;17.6;;
67344;SDS011;54230;52.402;6.276;2023-01-26T10:00:02;176.1;;;16.9;;
67344;SDS011;54230;52.402;6.276;2023-01-26T10:05:02;220.4;;;17.5;;
67344;SDS011;54230;52.402;6.276;2023-01-26T10:10:00;162.1;;;14.8;;
67344;SDS011;54230;52.402;6.276;2023-01-26T10:15:02;178.7;;;15.2;;
67344;SDS011;54230;52.402;6.276;2023-01-26T10:20:02;109.7;;;12.2;;
67344;SDS011;54230;52.402;6.276;2023-01-26T10:25:00;94.4;;;12.0;;
67344;SDS011;54230;52.402;6.276;2023-01-26T10:30:00;80.2;;;11.8;;
67344;SDS011;54230;52.402;6.276;2023-01-26T10:35:00;71.1;;;11.0;;
67344;SDS011;54230;52.402;6.276;2023-01-26T10:40:00;55.9;;;9.6;;
67344;SDS011;54230;52.402;6.276;2023-01-26T10:45:01;64.6;;;10.8;;
67344;SDS011;54230;52.402;6.276;2023-01-26T10:55:09;74.5;;;10.8;;
67344;SDS011;54230;52.402;6.276;2023-01-26T11:00:02;70.0;;;9.9;;
67344;SDS011;54230;52.402;6.276;2023-01-26T11:05:01;69.1;;;8.5;;
67344;SDS011;54230;52.402;6.276;2023-01-26T11:15:01;73.3;;;9.5;;
67344;SDS011;54230;52.402;6.276;2023-01-26T11:20:04;58.9;;;7.8;;
67344;SDS011;54230;52.402;6.276;2023-01-26T11:25:02;60.8;;;7.4;;
67344;SDS011;54230;52.402;6.276;2023-01-26T11:35:03;44.8;;;6.2;;
67344;SDS011;54230;52.402;6.276;2023-01-26T11:40:01;40.8;;;5.6;;
67344;SDS011;54230;52.402;6.276;2023-01-26T11:45:05;32.4;;;4.1;;
67344;SDS011;54230;52.402;6.276;2023-01-26T11:50:04;39.2;;;4.1;;
67344;SDS011;54230;52.402;6.276;2023-01-26T11:55:05;32.0;;;4.4;;
67344;SDS011;54230;52.402;6.276;2023-01-26T12:00:01;29.2;;;4.1;;
67344;SDS011;54230;52.402;6.276;2023-01-26T12:05:01;25.0;;;3.5;;
67344;SDS011;54230;52.402;6.276;2023-01-26T12:10:00;27.1;;;3.5;;
67344;SDS011;54230;52.402;6.276;2023-01-26T12:15:01;26.0;;;3.3;;
67344;SDS011;54230;52.402;6.276;2023-01-26T12:20:04;26.9;;;3.6;;
67344;SDS011;54230;52.402;6.276;2023-01-26T12:25:01;23.5;;;2.9;;
67344;SDS011;54230;52.402;6.276;2023-01-26T12:30:04;28.1;;;3.3;;
67344;SDS011;54230;52.402;6.276;2023-01-26T12:35:00;22.1;;;2.8;;
67344;SDS011;54230;52.402;6.276;2023-01-26T12:40:03;20.6;;;2.6;;
67344;SDS011;54230;52.402;6.276;2023-01-26T12:45:00;20.6;;;2.6;;
67344;SDS011;54230;52.402;6.276;2023-01-26T12:50:01;18.7;;;2.4;;
67344;SDS011;54230;52.402;6.276;2023-01-26T12:55:02;18.6;;;2.5;;
67344;SDS011;54230;52.402;6.276;2023-01-26T13:00:03;15.7;;;2.1;;
67344;SDS011;54230;52.402;6.276;2023-01-26T13:05:00;16.4;;;2.5;;
67344;SDS011;54230;52.402;6.276;2023-01-26T13:15:00;18.8;;;2.5;;
67344;SDS011;54230;52.402;6.276;2023-01-26T13:20:02;18.2;;;2.4;;
67344;SDS011;54230;52.402;6.276;2023-01-26T13:25:11;13.7;;;2.3;;
67344;SDS011;54230;52.402;6.276;2023-01-26T13:30:00;13.2;;;1.9;;
67344;SDS011;54230;52.402;6.276;2023-01-26T13:35:00;16.0;;;2.1;;
67344;SDS011;54230;52.402;6.276;2023-01-26T13:40:02;16.3;;;2.6;;
67344;SDS011;54230;52.402;6.276;2023-01-26T13:45:00;15.4;;;1.9;;
67344;SDS011;54230;52.402;6.276;2023-01-26T13:50:00;11.5;;;1.8;;
67344;SDS011;54230;52.402;6.276;2023-01-26T13:55:00;15.4;;;1.8;;
67344;SDS011;54230;52.402;6.276;2023-01-26T14:00:00;12.6;;;1.8;;
67344;SDS011;54230;52.402;6.276;2023-01-26T14:05:00;11.3;;;1.7;;
67344;SDS011;54230;52.402;6.276;2023-01-26T14:10:00;12.5;;;1.8;;
67344;SDS011;54230;52.402;6.276;2023-01-26T14:15:00;11.3;;;1.5;;
67344;SDS011;54230;52.402;6.276;2023-01-26T14:20:00;10.7;;;1.4;;
67344;SDS011;54230;52.402;6.276;2023-01-26T14:25:00;9.9;;;1.5;;
67344;SDS011;54230;52.402;6.276;2023-01-26T14:30:00;10.1;;;1.8;;
67344;SDS011;54230;52.402;6.276;2023-01-26T14:35:00;10.2;;;1.7;;
67344;SDS011;54230;52.402;6.276;2023-01-26T14:40:08;9.1;;;1.5;;
67344;SDS011;54230;52.402;6.276;2023-01-26T14:45:00;7.1;;;1.3;;
67344;SDS011;54230;52.402;6.276;2023-01-26T14:50:01;7.4;;;1.4;;
67344;SDS011;54230;52.402;6.276;2023-01-26T14:55:02;7.9;;;1.4;;
67344;SDS011;54230;52.402;6.276;2023-01-26T15:00:00;9.3;;;1.7;;
67344;SDS011;54230;52.402;6.276;2023-01-26T15:05:00;10.1;;;1.6;;
67344;SDS011;54230;52.402;6.276;2023-01-26T15:10:00;6.0;;;1.4;;
67344;SDS011;54230;52.402;6.276;2023-01-26T15:15:00;6.8;;;1.2;;
67344;SDS011;54230;52.402;6.276;2023-01-26T15:20:00;6.3;;;1.3;;
67344;SDS011;54230;52.402;6.276;2023-01-26T15:25:02;8.0;;;1.2;;
67344;SDS011;54230;52.402;6.276;2023-01-26T15:30:00;7.8;;;1.3;;
67344;SDS011;54230;52.402;6.276;2023-01-26T15:35:03;8.0;;;1.4;;
67344;SDS011;54230;52.402;6.276;2023-01-26T15:40:00;6.6;;;1.3;;
67344;SDS011;54230;52.402;6.276;2023-01-26T15:45:00;6.8;;;1.2;;
67344;SDS011;54230;52.402;6.276;2023-01-26T15:50:00;6.6;;;1.3;;
67344;SDS011;54230;52.402;6.276;2023-01-26T15:55:00;9.7;;;1.5;;
67344;SDS011;54230;52.402;6.276;2023-01-26T16:00:00;9.2;;;1.3;;
67344;SDS011;54230;52.402;6.276;2023-01-26T16:05:00;9.7;;;1.6;;
67344;SDS011;54230;52.402;6.276;2023-01-26T16:10:00;9.8;;;1.4;;
67344;SDS011;54230;52.402;6.276;2023-01-26T16:15:00;9.4;;;1.3;;
67344;SDS011;54230;52.402;6.276;2023-01-26T16:20:00;8.8;;;1.4;;
67344;SDS011;54230;52.402;6.276;2023-01-26T16:25:00;8.3;;;1.4;;
67344;SDS011;54230;52.402;6.276;2023-01-26T16:30:00;9.8;;;1.4;;
67344;SDS011;54230;52.402;6.276;2023-01-26T16:35:00;11.5;;;1.4;;
67344;SDS011;54230;52.402;6.276;2023-01-26T16:40:00;8.5;;;1.3;;
67344;SDS011;54230;52.402;6.276;2023-01-26T16:45:00;7.8;;;1.5;;
67344;SDS011;54230;52.402;6.276;2023-01-26T16:50:00;10.2;;;2.2;;
67344;SDS011;54230;52.402;6.276;2023-01-26T16:55:00;11.8;;;2.8;;
67344;SDS011;54230;52.402;6.276;2023-01-26T17:00:00;10.5;;;2.0;;
67344;SDS011;54230;52.402;6.276;2023-01-26T17:05:00;14.3;;;2.2;;
67344;SDS011;54230;52.402;6.276;2023-01-26T17:10:00;16.7;;;2.3;;
67344;SDS011;54230;52.402;6.276;2023-01-26T17:15:00;12.9;;;2.6;;
67344;SDS011;54230;52.402;6.276;2023-01-26T17:20:00;9.4;;;1.9;;
67344;SDS011;54230;52.402;6.276;2023-01-26T17:25:00;12.0;;;2.0;;
67344;SDS011;54230;52.402;6.276;2023-01-26T17:30:00;12.7;;;2.2;;
67344;SDS011;54230;52.402;6.276;2023-01-26T17:35:00;14.1;;;2.1;;
67344;SDS011;54230;52.402;6.276;2023-01-26T17:40:00;14.4;;;1.9;;
67344;SDS011;54230;52.402;6.276;2023-01-26T17:45:00;11.4;;;2.0;;
67344;SDS011;54230;52.402;6.276;2023-01-26T17:50:00;12.5;;;2.2;;
67344;SDS011;54230;52.402;6.276;2023-01-26T17:55:00;11.9;;;2.0;;
67344;SDS011;54230;52.402;6.276;2023-01-26T18:00:00;10.1;;;2.1;;
67344;SDS011;54230;52.402;6.276;2023-01-26T18:05:00;16.6;;;2.7;;
67344;SDS011;54230;52.402;6.276;2023-01-26T18:10:00;14.6;;;2.4;;
67344;SDS011;54230;52.402;6.276;2023-01-26T18:15:00;14.6;;;2.4;;
67344;SDS011;54230;52.402;6.276;2023-01-26T18:20:00;13.4;;;2.2;;
67344;SDS011;54230;52.402;6.276;2023-01-26T18:25:00;13.5;;;2.2;;
67344;SDS011;54230;52.402;6.276;2023-01-26T18:30:00;13.3;;;2.5;;
67344;SDS011;54230;52.402;6.276;2023-01-26T18:35:00;14.9;;;2.5;;
67344;SDS011;54230;52.402;6.276;2023-01-26T18:40:00;14.8;;;2.7;;
67344;SDS011;54230;52.402;6.276;2023-01-26T18:45:00;20.5;;;3.7;;
67344;SDS011;54230;52.402;6.276;2023-01-26T18:50:00;20.9;;;3.6;;
67344;SDS011;54230;52.402;6.276;2023-01-26T18:55:00;14.7;;;2.5;;
67344;SDS011;54230;52.402;6.276;2023-01-26T19:00:00;16.9;;;2.4;;
67344;SDS011;54230;52.402;6.276;2023-01-26T19:05:00;18.4;;;2.4;;
67344;SDS011;54230;52.402;6.276;2023-01-26T19:10:00;17.3;;;2.6;;
67344;SDS011;54230;52.402;6.276;2023-01-26T19:15:00;14.2;;;2.3;;
67344;SDS011;54230;52.402;6.276;2023-01-26T19:20:00;15.4;;;2.5;;
67344;SDS011;54230;52.402;6.276;2023-01-26T19:25:00;9.4;;;2.0;;
67344;SDS011;54230;52.402;6.276;2023-01-26T19:30:00;12.5;;;2.3;;
67344;SDS011;54230;52.402;6.276;2023-01-26T19:35:00;16.6;;;2.4;;
67344;SDS011;54230;52.402;6.276;2023-01-26T19:40:00;16.3;;;2.7;;
67344;SDS011;54230;52.402;6.276;2023-01-26T19:45:00;21.6;;;2.9;;
67344;SDS011;54230;52.402;6.276;2023-01-26T19:50:00;16.2;;;2.6;;
67344;SDS011;54230;52.402;6.276;2023-01-26T19:55:00;14.7;;;2.4;;
67344;SDS011;54230;52.402;6.276;2023-01-26T20:00:00;16.1;;;2.5;;
67344;SDS011;54230;52.402;6.276;2023-01-26T20:05:00;17.4;;;2.6;;
67344;SDS011;54230;52.402;6.276;2023-01-26T20:10:00;12.1;;;2.3;;
67344;SDS011;54230;52.402;6.276;2023-01-26T20:15:00;18.3;;;2.7;;
67344;SDS011;54230;52.402;6.276;2023-01-26T20:20:00;16.5;;;2.9;;
67344;SDS011;54230;52.402;6.276;2023-01-26T20:25:00;19.8;;;3.8;;
67344;SDS011;54230;52.402;6.276;2023-01-26T20:30:00;18.0;;;2.7;;
67344;SDS011;54230;52.402;6.276;2023-01-26T20:35:00;14.9;;;3.0;;
67344;SDS011;54230;52.402;6.276;2023-01-26T20:40:00;15.9;;;3.3;;
67344;SDS011;54230;52.402;6.276;2023-01-26T20:45:00;15.9;;;3.2;;
67344;SDS011;54230;52.402;6.276;2023-01-26T20:50:00;17.9;;;3.2;;
67344;SDS011;54230;52.402;6.276;2023-01-26T20:55:00;21.1;;;3.8;;
67344;SDS011;54230;52.402;6.276;2023-01-26T21:00:00;20.0;;;3.2;;
67344;SDS011;54230;52.402;6.276;2023-01-26T21:05:00;23.8;;;3.4;;
67344;SDS011;54230;52.402;6.276;2023-01-26T21:10:00;21.3;;;3.4;;
67344;SDS011;54230;52.402;6.276;2023-01-26T21:15:00;20.5;;;3.7;;
67344;SDS011;54230;52.402;6.276;2023-01-26T21:20:00;21.1;;;3.6;;
67344;SDS011;54230;52.402;6.276;2023-01-26T21:25:00;18.4;;;3.9;;
67344;SDS011;54230;52.402;6.276;2023-01-26T21:30:00;17.7;;;3.5;;
67344;SDS011;54230;52.402;6.276;2023-01-26T21:35:00;17.0;;;3.0;;
67344;SDS011;54230;52.402;6.276;2023-01-26T21:40:00;16.8;;;2.7;;
67344;SDS011;54230;52.402;6.276;2023-01-26T21:45:00;18.6;;;2.9;;
67344;SDS011;54230;52.402;6.276;2023-01-26T21:50:00;17.4;;;2.8;;
67344;SDS011;54230;52.402;6.276;2023-01-26T21:55:00;13.6;;;2.7;;
67344;SDS011;54230;52.402;6.276;2023-01-26T22:00:00;19.0;;;3.3;;
67344;SDS011;54230;52.402;6.276;2023-01-26T22:05:00;13.8;;;3.4;;
67344;SDS011;54230;52.402;6.276;2023-01-26T22:10:00;15.8;;;2.8;;
67344;SDS011;54230;52.402;6.276;2023-01-26T22:15:00;17.5;;;3.2;;
67344;SDS011;54230;52.402;6.276;2023-01-26T22:20:00;16.8;;;3.7;;
67344;SDS011;54230;52.402;6.276;2023-01-26T22:25:00;14.3;;;3.4;;
67344;SDS011;54230;52.402;6.276;2023-01-26T22:30:00;20.1;;;3.7;;
67344;SDS011;54230;52.402;6.276;2023-01-26T22:35:00;15.4;;;3.6;;
67344;SDS011;54230;52.402;6.276;2023-01-26T22:40:00;13.5;;;3.5;;
67344;SDS011;54230;52.402;6.276;2023-01-26T22:45:00;15.7;;;3.9;;
67344;SDS011;54230;52.402;6.276;2023-01-26T22:50:00;13.5;;;3.7;;
67344;SDS011;54230;52.402;6.276;2023-01-26T22:55:00;17.6;;;4.5;;
67344;SDS011;54230;52.402;6.276;2023-01-26T23:00:00;14.0;;;3.6;;
67344;SDS011;54230;52.402;6.276;2023-01-26T23:05:00;14.0;;;4.2;;
67344;SDS011;54230;52.402;6.276;2023-01-26T23:10:00;12.3;;;3.8;;
67344;SDS011;54230;52.402;6.276;2023-01-26T23:15:00;13.8;;;4.4;;
67344;SDS011;54230;52.402;6.276;2023-01-26T23:20:00;14.0;;;4.1;;
67344;SDS011;54230;52.402;6.276;2023-01-26T23:25:00;13.2;;;4.4;;
67344;SDS011;54230;52.402;6.276;2023-01-26T23:30:00;13.2;;;4.9;;
67344;SDS011;54230;52.402;6.276;2023-01-26T23:35:00;15.8;;;5.1;;
67344;SDS011;54230;52.402;6.276;2023-01-26T23:40:00;13.6;;;5.0;;
67344;SDS011;54230;52.402;6.276;2023-01-26T23:45:00;16.1;;;5.2;;
67344;SDS011;54230;52.402;6.276;2023-01-26T23:50:00;16.7;;;5.3;;
67344;SDS011;54230;52.402;6.276;2023-01-26T23:55:00;16.0;;;5.2;;
